createdAt,value
2017-08-17T00:02:04.705Z,16.00
2017-08-17T00:04:32.908Z,15.90
2017-08-17T00:07:01.110Z,16.00
2017-08-17T00:09:30.081Z,16.10
2017-08-17T00:11:58.253Z,16.00
2017-08-17T00:14:26.482Z,16.00
2017-08-17T00:16:54.732Z,16.00
2017-08-17T00:19:23.824Z,15.90
2017-08-17T00:21:52.867Z,15.90
2017-08-17T00:24:21.811Z,16.00
2017-08-17T00:26:50.006Z,16.00
2017-08-17T00:29:18.212Z,16.10
2017-08-17T00:31:46.402Z,16.10
2017-08-17T00:34:14.683Z,16.10
2017-08-17T00:36:42.906Z,16.10
2017-08-17T00:39:11.177Z,16.10
2017-08-17T00:41:40.029Z,16.10
2017-08-17T00:44:08.354Z,16.10
2017-08-17T00:46:36.505Z,16.10
2017-08-17T00:49:04.697Z,16.10
2017-08-17T00:51:32.875Z,16.20
2017-08-17T00:54:01.082Z,16.20
2017-08-17T00:56:30.342Z,16.10
2017-08-17T00:58:58.535Z,16.00
2017-08-17T01:01:27.920Z,15.90
2017-08-17T01:03:56.111Z,15.80
2017-08-17T01:06:24.298Z,15.70
2017-08-17T01:08:52.563Z,15.70
2017-08-17T01:11:20.874Z,15.60
2017-08-17T01:13:49.101Z,15.40
2017-08-17T01:16:18.384Z,15.30
2017-08-17T01:18:48.001Z,15.30
2017-08-17T01:21:17.023Z,15.30
2017-08-17T01:23:45.241Z,15.20
2017-08-17T01:26:14.035Z,15.20
2017-08-17T01:28:42.205Z,15.20
2017-08-17T01:31:11.059Z,15.20
2017-08-17T01:33:39.351Z,15.20
2017-08-17T01:36:08.761Z,15.00
2017-08-17T01:38:36.910Z,15.00
2017-08-17T01:41:05.141Z,15.00
2017-08-17T01:43:33.499Z,15.00
2017-08-17T01:46:01.741Z,14.80
2017-08-17T01:48:30.717Z,14.80
2017-08-17T01:50:58.934Z,14.80
2017-08-17T01:53:27.843Z,14.80
2017-08-17T01:55:56.067Z,14.80
2017-08-17T01:58:25.152Z,14.80
2017-08-17T02:00:53.664Z,14.70
2017-08-17T02:03:21.833Z,14.70
2017-08-17T02:05:50.041Z,14.70
2017-08-17T02:08:18.216Z,14.70
2017-08-17T02:10:46.478Z,14.70
2017-08-17T02:13:14.633Z,14.70
2017-08-17T02:15:44.282Z,14.70
2017-08-17T02:18:13.057Z,14.60
2017-08-17T02:20:41.270Z,14.70
2017-08-17T02:23:09.524Z,14.70
2017-08-17T02:25:37.694Z,14.70
2017-08-17T02:28:06.045Z,14.70
2017-08-17T02:30:34.523Z,14.70
2017-08-17T02:33:03.091Z,14.80
2017-08-17T02:35:31.263Z,14.80
2017-08-17T02:37:59.696Z,14.80
2017-08-17T02:40:27.947Z,14.80
2017-08-17T02:42:56.115Z,14.80
2017-08-17T02:45:24.294Z,14.90
2017-08-17T02:47:52.522Z,14.90
2017-08-17T02:50:22.210Z,15.00
2017-08-17T02:52:50.421Z,14.90
2017-08-17T02:55:18.654Z,15.00
2017-08-17T02:57:46.885Z,15.00
2017-08-17T03:00:15.723Z,14.90
2017-08-17T03:02:44.120Z,14.90
2017-08-17T03:05:12.364Z,14.90
2017-08-17T03:07:40.749Z,15.00
2017-08-17T03:10:08.983Z,14.90
2017-08-17T03:12:37.278Z,14.90
2017-08-17T03:15:05.581Z,14.90
2017-08-17T03:17:33.784Z,14.90
2017-08-17T03:20:02.038Z,14.90
2017-08-17T03:22:30.293Z,14.90
2017-08-17T03:24:59.251Z,14.90
2017-08-17T03:27:27.498Z,14.80
2017-08-17T03:29:55.706Z,14.80
2017-08-17T03:32:23.891Z,14.80
2017-08-17T03:34:52.875Z,14.80
2017-08-17T03:37:21.064Z,14.70
2017-08-17T03:39:49.359Z,14.70
2017-08-17T03:42:17.793Z,14.70
2017-08-17T03:44:46.835Z,14.70
2017-08-17T03:47:16.128Z,14.70
2017-08-17T03:49:44.403Z,14.70
2017-08-17T03:52:12.680Z,14.70
2017-08-17T03:54:41.674Z,14.60
2017-08-17T03:57:10.051Z,14.60
2017-08-17T03:59:38.223Z,14.70
2017-08-17T04:02:06.409Z,14.70
2017-08-17T04:04:34.622Z,14.60
2017-08-17T04:07:02.975Z,14.60
2017-08-17T04:09:31.337Z,14.50
2017-08-17T04:11:59.731Z,14.60
2017-08-17T04:14:27.958Z,14.60
2017-08-17T04:16:56.134Z,14.70
2017-08-17T04:19:25.066Z,14.50
2017-08-17T04:21:54.016Z,14.40
2017-08-17T04:24:22.228Z,14.40
2017-08-17T04:26:50.486Z,14.40
2017-08-17T04:29:18.766Z,14.40
2017-08-17T04:31:46.959Z,14.40
2017-08-17T04:34:15.358Z,14.40
2017-08-17T04:36:44.388Z,14.50
2017-08-17T04:39:13.199Z,14.50
2017-08-17T04:41:41.445Z,14.50
2017-08-17T04:44:10.626Z,14.50
2017-08-17T04:46:38.900Z,14.40
2017-08-17T04:49:07.127Z,14.60
2017-08-17T04:51:35.355Z,14.60
2017-08-17T04:54:04.319Z,14.70
2017-08-17T04:56:54.840Z,14.60
2017-08-17T04:59:23.062Z,14.70
2017-08-17T05:01:51.333Z,14.80
2017-08-17T05:04:19.548Z,14.90
2017-08-17T05:06:47.841Z,14.90
2017-08-17T05:09:16.841Z,14.80
2017-08-17T05:11:46.027Z,14.90
2017-08-17T05:14:15.173Z,15.10
2017-08-17T05:16:43.382Z,15.00
2017-08-17T05:19:11.583Z,15.20
2017-08-17T05:21:40.561Z,15.20
2017-08-17T05:24:08.735Z,15.10
2017-08-17T05:26:36.921Z,15.20
2017-08-17T05:29:05.056Z,15.20
2017-08-17T05:31:34.026Z,15.30
2017-08-17T05:34:02.920Z,15.20
2017-08-17T05:36:31.230Z,15.30
2017-08-17T05:38:59.489Z,15.30
2017-08-17T05:41:27.793Z,15.40
2017-08-17T05:43:56.045Z,15.50
2017-08-17T05:46:24.245Z,15.60
2017-08-17T05:48:52.495Z,15.70
2017-08-17T05:51:21.358Z,15.80
2017-08-17T05:53:49.561Z,15.90
2017-08-17T05:56:17.896Z,16.10
2017-08-17T05:58:46.824Z,16.20
2017-08-17T06:01:15.039Z,16.10
2017-08-17T06:03:43.273Z,16.30
2017-08-17T06:06:12.313Z,16.40
2017-08-17T06:08:40.571Z,16.50
2017-08-17T06:11:08.830Z,16.60
2017-08-17T06:13:37.103Z,16.70
2017-08-17T06:16:05.428Z,16.70
2017-08-17T06:18:33.661Z,16.80
2017-08-17T06:21:02.646Z,17.00
2017-08-17T06:23:31.050Z,16.90
2017-08-17T06:26:00.023Z,17.20
2017-08-17T06:28:28.807Z,17.20
2017-08-17T06:30:57.593Z,17.50
2017-08-17T06:33:25.808Z,17.70
2017-08-17T06:35:54.823Z,18.10
2017-08-17T06:38:23.181Z,18.00
2017-08-17T06:40:52.325Z,18.40
2017-08-17T06:43:20.609Z,18.50
2017-08-17T06:45:49.895Z,18.70
2017-08-17T06:48:18.161Z,18.70
2017-08-17T06:50:46.465Z,19.00
2017-08-17T06:53:14.689Z,19.30
2017-08-17T06:55:42.915Z,19.40
2017-08-17T06:58:11.703Z,19.60
2017-08-17T07:00:40.116Z,19.90
2017-08-17T07:03:09.078Z,20.30
2017-08-17T07:05:37.321Z,20.30
2017-08-17T07:08:05.663Z,20.50
2017-08-17T07:10:34.794Z,21.00
2017-08-17T07:13:03.000Z,21.00
2017-08-17T07:15:31.171Z,21.30
2017-08-17T07:17:59.350Z,21.60
2017-08-17T07:20:27.770Z,21.80
2017-08-17T07:22:56.046Z,21.80
2017-08-17T07:25:25.066Z,21.60
2017-08-17T07:27:54.702Z,21.80
2017-08-17T07:30:22.952Z,21.70
2017-08-17T07:32:51.200Z,22.20
2017-08-17T07:35:20.153Z,22.30
2017-08-17T07:37:48.397Z,22.40
2017-08-17T07:40:16.626Z,22.60
2017-08-17T07:42:44.840Z,22.40
2017-08-17T07:45:13.700Z,22.50
2017-08-17T07:47:42.653Z,22.70
2017-08-17T07:50:10.829Z,22.60
2017-08-17T07:52:39.798Z,23.00
2017-08-17T07:55:08.040Z,22.90
2017-08-17T07:57:36.267Z,23.10
2017-08-17T08:00:04.875Z,23.20
2017-08-17T08:02:33.075Z,23.20
2017-08-17T08:05:02.168Z,23.70
2017-08-17T08:07:30.952Z,23.60
2017-08-17T08:09:59.195Z,23.70
2017-08-17T08:12:27.366Z,23.80
2017-08-17T08:14:55.638Z,23.90
2017-08-17T08:17:23.891Z,24.10
2017-08-17T08:19:52.230Z,24.30
2017-08-17T08:22:21.176Z,24.30
2017-08-17T08:24:49.351Z,24.20
2017-08-17T08:27:17.522Z,24.50
2017-08-17T08:29:45.800Z,24.40
2017-08-17T08:32:15.115Z,24.60
2017-08-17T08:34:43.274Z,24.50
2017-08-17T08:37:11.549Z,24.60
2017-08-17T08:39:39.939Z,24.60
2017-08-17T08:42:08.907Z,24.80
2017-08-17T08:44:37.337Z,25.10
2017-08-17T08:47:05.552Z,25.00
2017-08-17T08:49:34.549Z,24.50
2017-08-17T08:52:02.797Z,24.40
2017-08-17T08:54:30.999Z,24.30
2017-08-17T08:56:59.305Z,24.60
2017-08-17T08:59:27.525Z,24.90
2017-08-17T09:01:56.032Z,25.10
2017-08-17T09:04:24.894Z,25.10
2017-08-17T09:06:53.834Z,25.60
2017-08-17T09:09:22.830Z,25.50
2017-08-17T09:11:51.212Z,25.40
2017-08-17T09:14:19.469Z,25.30
2017-08-17T09:16:47.664Z,25.30
2017-08-17T09:19:15.891Z,25.40
2017-08-17T09:21:44.670Z,25.20
2017-08-17T09:24:12.901Z,25.10
2017-08-17T09:26:41.208Z,25.30
2017-08-17T09:29:09.454Z,25.50
2017-08-17T09:31:37.708Z,25.50
2017-08-17T09:34:06.715Z,25.50
2017-08-17T09:36:34.885Z,25.50
2017-08-17T09:39:03.065Z,25.70
2017-08-17T09:41:31.248Z,25.70
2017-08-17T09:43:59.550Z,26.20
2017-08-17T09:46:27.779Z,26.20
2017-08-17T09:48:56.582Z,25.90
2017-08-17T09:51:25.575Z,25.90
2017-08-17T09:53:53.755Z,25.90
2017-08-17T09:56:22.021Z,26.20
2017-08-17T09:58:50.192Z,26.40
2017-08-17T10:01:19.161Z,26.10
2017-08-17T10:03:47.344Z,26.10
2017-08-17T10:06:16.323Z,26.20
2017-08-17T10:08:44.938Z,26.10
2017-08-17T10:11:13.156Z,26.10
2017-08-17T10:13:41.338Z,26.30
2017-08-17T10:16:09.563Z,26.80
2017-08-17T10:18:38.462Z,26.90
2017-08-17T10:21:06.621Z,26.30
2017-08-17T10:23:34.820Z,26.10
2017-08-17T10:26:03.047Z,26.20
2017-08-17T10:28:31.450Z,26.10
2017-08-17T10:30:59.646Z,25.70
2017-08-17T10:33:27.937Z,25.90
2017-08-17T10:35:56.491Z,26.10
2017-08-17T10:38:25.422Z,26.00
2017-08-17T10:40:53.638Z,26.00
2017-08-17T10:43:22.601Z,25.60
2017-08-17T10:45:50.864Z,25.60
2017-08-17T10:48:19.070Z,25.80
2017-08-17T10:50:47.301Z,25.80
2017-08-17T10:53:15.564Z,26.00
2017-08-17T10:55:44.014Z,25.80
2017-08-17T10:58:13.447Z,25.40
2017-08-17T11:00:43.661Z,25.30
2017-08-17T11:03:11.914Z,25.30
2017-08-17T11:05:40.933Z,25.50
2017-08-17T11:08:09.286Z,25.80
2017-08-17T11:10:38.219Z,25.70
2017-08-17T11:13:06.452Z,25.60
2017-08-17T11:15:34.905Z,25.30
2017-08-17T11:18:03.110Z,25.10
2017-08-17T11:20:31.314Z,25.20
2017-08-17T11:22:59.525Z,24.90
2017-08-17T11:25:27.806Z,25.20
2017-08-17T11:27:56.005Z,25.20
2017-08-17T11:30:24.213Z,25.30
2017-08-17T11:32:52.427Z,25.30
2017-08-17T11:35:20.800Z,25.10
2017-08-17T11:37:48.978Z,25.00
2017-08-17T11:40:17.181Z,24.90
2017-08-17T11:42:45.466Z,24.80
2017-08-17T11:45:13.713Z,24.90
2017-08-17T11:47:41.874Z,24.70
2017-08-17T11:50:10.117Z,24.60
2017-08-17T11:52:38.779Z,24.50
2017-08-17T11:55:06.983Z,24.40
2017-08-17T11:57:35.262Z,24.30
2017-08-17T12:00:03.564Z,24.20
2017-08-17T12:02:31.768Z,24.20
2017-08-17T12:04:59.935Z,24.10
2017-08-17T12:07:28.137Z,24.10
2017-08-17T12:09:56.379Z,24.10
2017-08-17T12:12:24.592Z,24.10
2017-08-17T12:14:53.519Z,24.00
2017-08-17T12:17:21.755Z,24.00
2017-08-17T12:19:50.943Z,23.90
2017-08-17T12:22:19.145Z,23.90
2017-08-17T12:24:48.118Z,23.90
2017-08-17T12:27:16.313Z,23.90
2017-08-17T12:29:44.549Z,24.00
2017-08-17T12:32:12.806Z,24.10
2017-08-17T12:34:41.163Z,24.30
2017-08-17T12:37:09.341Z,24.60
2017-08-17T12:39:37.514Z,24.60
2017-08-17T12:42:05.682Z,24.80
2017-08-17T12:44:34.919Z,24.90
2017-08-17T12:47:03.280Z,24.80
2017-08-17T12:49:31.458Z,24.70
2017-08-17T12:51:59.690Z,24.70
2017-08-17T12:54:27.933Z,24.70
2017-08-17T12:56:56.208Z,24.70
2017-08-17T12:59:24.419Z,24.80
2017-08-17T13:01:52.714Z,24.80
2017-08-17T13:04:20.938Z,24.80
2017-08-17T13:06:49.165Z,24.90
2017-08-17T13:09:17.551Z,24.80
2017-08-17T13:11:45.841Z,24.80
2017-08-17T13:14:14.261Z,24.70
2017-08-17T13:16:42.500Z,24.70
2017-08-17T13:19:10.713Z,24.80
2017-08-17T13:21:39.723Z,24.90
2017-08-17T13:24:07.885Z,24.80
2017-08-17T13:26:36.053Z,24.90
2017-08-17T13:29:04.266Z,25.00
2017-08-17T13:31:32.561Z,25.20
2017-08-17T13:34:00.728Z,25.40
2017-08-17T13:36:28.937Z,25.30
2017-08-17T13:38:57.382Z,25.30
2017-08-17T13:41:25.858Z,25.60
2017-08-17T13:43:54.757Z,25.60
2017-08-17T13:46:23.181Z,25.70
2017-08-17T13:48:51.334Z,26.00
2017-08-17T13:51:19.508Z,26.00
2017-08-17T13:53:47.668Z,26.00
2017-08-17T13:56:15.827Z,25.70
2017-08-17T13:58:44.047Z,25.70
2017-08-17T14:01:13.028Z,25.60
2017-08-17T14:03:44.347Z,25.60
2017-08-17T14:06:12.555Z,25.40
2017-08-17T14:08:40.846Z,25.40
2017-08-17T14:11:09.126Z,25.50
2017-08-17T14:13:37.616Z,25.60
2017-08-17T14:16:05.801Z,25.30
2017-08-17T14:18:34.208Z,25.40
2017-08-17T14:21:04.289Z,25.60
2017-08-17T14:23:32.851Z,25.50
2017-08-17T14:26:01.033Z,25.50
2017-08-17T14:28:29.330Z,25.60
2017-08-17T14:30:57.489Z,25.60
2017-08-17T14:33:25.661Z,25.50
2017-08-17T14:35:53.988Z,25.50
2017-08-17T14:38:22.166Z,25.60
2017-08-17T14:40:51.027Z,25.60
2017-08-17T14:43:19.262Z,25.60
2017-08-17T14:45:47.457Z,25.50
2017-08-17T14:48:15.794Z,25.30
2017-08-17T14:50:44.614Z,25.20
2017-08-17T14:53:16.867Z,25.10
2017-08-17T14:55:45.035Z,25.10
2017-08-17T14:58:13.242Z,25.00
2017-08-17T15:00:41.410Z,25.00
2017-08-17T15:03:09.603Z,25.00
2017-08-17T15:05:37.791Z,25.00
2017-08-17T15:08:05.983Z,24.90
2017-08-17T15:10:34.335Z,24.90
2017-08-17T15:13:02.548Z,24.80
2017-08-17T15:15:30.734Z,24.70
2017-08-17T15:18:01.347Z,24.70
2017-08-17T15:20:29.612Z,24.70
2017-08-17T15:22:57.762Z,24.70
2017-08-17T15:25:27.335Z,24.70
2017-08-17T15:27:56.227Z,24.60
2017-08-17T15:30:24.427Z,24.60
2017-08-17T15:32:52.632Z,24.60
2017-08-17T15:35:20.823Z,24.50
2017-08-17T15:37:48.995Z,24.30
2017-08-17T15:40:17.191Z,24.30
2017-08-17T15:42:46.287Z,24.30
2017-08-17T15:45:14.438Z,24.20
2017-08-17T15:47:42.596Z,24.10
2017-08-17T15:50:10.714Z,24.10
2017-08-17T15:52:38.888Z,24.10
2017-08-17T15:55:07.012Z,24.00
2017-08-17T15:57:35.141Z,24.00
2017-08-17T16:00:03.497Z,24.00
2017-08-17T16:02:31.684Z,23.90
2017-08-17T16:04:59.860Z,23.90
2017-08-17T16:07:27.989Z,23.90
2017-08-17T16:09:56.152Z,23.90
2017-08-17T16:12:24.292Z,23.80
2017-08-17T16:14:52.481Z,23.80
2017-08-17T16:17:20.712Z,23.80
2017-08-17T16:19:48.851Z,23.80
2017-08-17T16:22:17.012Z,23.70
2017-08-17T16:24:46.344Z,23.80
2017-08-17T16:27:15.338Z,23.80
2017-08-17T16:29:43.499Z,23.70
2017-08-17T16:32:11.684Z,23.70
2017-08-17T16:34:39.874Z,23.70
2017-08-17T16:37:10.890Z,23.60
2017-08-17T16:39:39.125Z,23.60
2017-08-17T16:42:07.270Z,23.60
2017-08-17T16:44:35.445Z,23.50
2017-08-17T16:47:03.586Z,23.50
2017-08-17T16:49:31.865Z,23.40
2017-08-17T16:52:00.063Z,23.40
2017-08-17T16:54:28.279Z,23.30
2017-08-17T16:56:56.452Z,23.20
2017-08-17T16:59:24.670Z,23.10
2017-08-17T17:01:52.831Z,23.00
2017-08-17T17:04:21.037Z,23.10
2017-08-17T17:06:49.239Z,23.10
2017-08-17T17:09:17.411Z,23.00
2017-08-17T17:11:45.606Z,23.10
2017-08-17T17:14:13.821Z,23.10
2017-08-17T17:16:42.060Z,23.00
2017-08-17T17:19:10.192Z,23.00
2017-08-17T17:21:39.005Z,23.10
2017-08-17T17:24:07.222Z,23.10
2017-08-17T17:26:35.428Z,23.00
2017-08-17T17:29:03.672Z,23.00
2017-08-17T17:31:31.873Z,22.90
2017-08-17T17:34:00.056Z,22.80
2017-08-17T17:36:28.200Z,22.20
2017-08-17T17:38:56.393Z,21.90
2017-08-17T17:41:24.549Z,21.60
2017-08-17T17:43:53.456Z,21.60
2017-08-17T17:46:21.684Z,21.50
2017-08-17T17:48:49.851Z,21.40
2017-08-17T17:51:18.822Z,21.30
2017-08-17T17:53:46.978Z,21.20
2017-08-17T17:56:15.160Z,21.30
2017-08-17T17:58:43.324Z,21.30
2017-08-17T18:01:11.548Z,21.30
2017-08-17T18:03:39.706Z,21.30
2017-08-17T18:06:08.199Z,21.20
2017-08-17T18:08:37.100Z,21.20
2017-08-17T18:11:05.253Z,21.20
2017-08-17T18:13:33.428Z,21.10
2017-08-17T18:16:01.794Z,21.10
2017-08-17T18:18:30.057Z,21.10
2017-08-17T18:20:58.238Z,21.10
2017-08-17T18:23:26.559Z,21.10
2017-08-17T18:25:55.500Z,21.20
2017-08-17T18:28:24.335Z,21.10
2017-08-17T18:30:52.535Z,21.00
2017-08-17T18:33:20.747Z,21.00
2017-08-17T18:35:49.679Z,20.90
2017-08-17T18:38:18.326Z,20.80
2017-08-17T18:40:46.781Z,20.90
2017-08-17T18:43:15.019Z,20.80
2017-08-17T18:45:43.268Z,20.70
2017-08-17T18:48:11.466Z,20.80
2017-08-17T18:50:40.057Z,20.90
2017-08-17T18:53:08.257Z,20.90
2017-08-17T18:55:37.197Z,21.00
2017-08-17T18:58:05.446Z,20.90
2017-08-17T19:00:33.618Z,20.90
2017-08-17T19:03:01.813Z,20.90
2017-08-17T19:05:29.992Z,20.90
2017-08-17T19:07:58.261Z,20.90
2017-08-17T19:10:26.433Z,20.90
2017-08-17T19:12:54.718Z,20.90
2017-08-17T19:15:22.921Z,20.90
2017-08-17T19:17:51.060Z,20.80
2017-08-17T19:20:19.314Z,20.80
2017-08-17T19:22:47.512Z,20.70
2017-08-17T19:25:15.686Z,20.70
2017-08-17T19:27:43.859Z,20.60
2017-08-17T19:30:12.033Z,20.50
2017-08-17T19:32:40.213Z,20.40
2017-08-17T19:35:49.554Z,20.30
2017-08-17T19:38:17.720Z,20.20
2017-08-17T19:40:45.902Z,20.10
2017-08-17T19:43:14.152Z,20.00
2017-08-17T19:45:44.285Z,20.00
2017-08-17T19:48:12.465Z,20.00
2017-08-17T19:50:41.196Z,19.90
2017-08-17T19:53:09.667Z,20.00
2017-08-17T19:55:38.059Z,19.90
2017-08-17T19:58:06.253Z,19.90
2017-08-17T20:00:35.138Z,19.90
2017-08-17T20:03:04.584Z,19.90
2017-08-17T20:05:33.211Z,19.90
2017-08-17T20:08:01.374Z,19.90
2017-08-17T20:10:29.531Z,19.90
2017-08-17T20:12:57.754Z,19.90
2017-08-17T20:15:25.935Z,19.80
2017-08-17T20:17:54.962Z,19.80
2017-08-17T20:20:23.823Z,19.80
2017-08-17T20:22:51.994Z,19.80
2017-08-17T20:25:20.142Z,19.80
2017-08-17T20:27:48.314Z,19.80
2017-08-17T20:30:16.567Z,19.80
2017-08-17T20:32:44.764Z,19.80
2017-08-17T20:35:12.958Z,19.80
2017-08-17T20:37:41.109Z,19.70
2017-08-17T20:40:09.305Z,19.80
2017-08-17T20:42:37.506Z,19.80
2017-08-17T20:45:06.137Z,19.70
2017-08-17T20:47:35.221Z,19.60
2017-08-17T20:50:03.370Z,19.60
2017-08-17T20:52:31.523Z,19.70
2017-08-17T20:55:00.373Z,19.70
2017-08-17T20:57:28.624Z,19.70
2017-08-17T20:59:56.792Z,19.70
2017-08-17T21:02:24.952Z,19.70
2017-08-17T21:04:53.174Z,19.70
2017-08-17T21:07:21.581Z,19.60
2017-08-17T21:09:49.753Z,19.50
2017-08-17T21:12:17.945Z,19.60
2017-08-17T21:14:46.171Z,19.60
2017-08-17T21:17:14.349Z,19.60
2017-08-17T21:19:42.545Z,19.50
2017-08-17T21:22:11.142Z,19.50
2017-08-17T21:24:39.328Z,19.50
2017-08-17T21:27:08.988Z,19.40
2017-08-17T21:29:37.901Z,19.40
2017-08-17T21:32:06.071Z,19.40
2017-08-17T21:34:34.226Z,19.40
2017-08-17T21:37:02.445Z,19.30
2017-08-17T21:39:30.606Z,19.30
2017-08-17T21:41:58.808Z,19.30
2017-08-17T21:44:27.765Z,19.40
2017-08-17T21:46:55.976Z,19.30
2017-08-17T21:49:24.506Z,19.40
2017-08-17T21:51:52.850Z,19.30
2017-08-17T21:54:22.258Z,19.30
2017-08-17T21:56:50.537Z,19.30
2017-08-17T21:59:18.721Z,19.30
2017-08-17T22:01:46.887Z,19.30
2017-08-17T22:04:15.058Z,19.30
2017-08-17T22:06:43.206Z,19.20
2017-08-17T22:09:11.405Z,19.20
2017-08-17T22:11:39.545Z,19.20
2017-08-17T22:14:08.521Z,19.40
2017-08-17T22:16:36.915Z,19.30
2017-08-17T22:19:05.257Z,19.30
2017-08-17T22:21:34.468Z,19.30
2017-08-17T22:24:02.629Z,19.20
2017-08-17T22:26:30.802Z,19.30
2017-08-17T22:28:59.718Z,19.40
2017-08-17T22:31:28.422Z,19.30
2017-08-17T22:33:56.578Z,19.30
2017-08-17T22:36:24.771Z,19.30
2017-08-17T22:38:52.934Z,19.30
2017-08-17T22:41:21.144Z,19.20
2017-08-17T22:43:49.302Z,19.20
2017-08-17T22:46:17.526Z,19.20
2017-08-17T22:48:45.696Z,19.20
2017-08-17T22:51:13.868Z,19.20
2017-08-17T22:53:42.045Z,19.20
2017-08-17T22:56:10.265Z,19.20
2017-08-17T22:58:38.488Z,19.20
2017-08-17T23:01:07.406Z,19.20
2017-08-17T23:03:35.578Z,19.10
2017-08-17T23:06:03.752Z,19.20
2017-08-17T23:08:31.965Z,19.10
2017-08-17T23:11:00.116Z,19.00
2017-08-17T23:13:28.269Z,19.00
2017-08-17T23:15:56.444Z,19.00
2017-08-17T23:18:24.598Z,19.10
2017-08-17T23:20:52.790Z,19.00
2017-08-17T23:23:21.666Z,19.10
2017-08-17T23:25:49.864Z,19.00
2017-08-17T23:28:18.005Z,19.00
2017-08-17T23:30:46.179Z,19.00
2017-08-17T23:33:14.382Z,19.00
2017-08-17T23:35:43.312Z,19.00
2017-08-17T23:38:11.534Z,18.90
2017-08-17T23:40:39.725Z,19.00
2017-08-17T23:43:07.920Z,19.00
2017-08-17T23:45:36.828Z,19.00
2017-08-17T23:48:05.004Z,18.90
2017-08-17T23:50:33.195Z,19.00
2017-08-17T23:53:01.385Z,19.00
2017-08-17T23:55:29.562Z,19.00
2017-08-17T23:57:57.761Z,19.00
